createdAt,value
2023-03-17T00:02:49.075Z,57.68
2023-03-17T00:05:53.797Z,57.63
2023-03-17T00:08:57.534Z,57.95
2023-03-17T00:12:00.616Z,57.79
2023-03-17T00:15:03.232Z,56.77
2023-03-17T00:18:11.690Z,57.04
2023-03-17T00:21:16.155Z,57.10
2023-03-17T00:24:19.105Z,56.97
2023-03-17T00:27:21.959Z,57.36
2023-03-17T00:30:27.250Z,57.59
2023-03-17T00:33:33.150Z,57.55
2023-03-17T00:36:36.048Z,57.81
2023-03-17T00:39:39.717Z,58.10
2023-03-17T00:42:43.396Z,58.56
2023-03-17T00:45:46.922Z,59.05
2023-03-17T00:48:49.837Z,58.34
2023-03-17T00:51:52.957Z,57.85
2023-03-17T00:54:57.284Z,56.96
2023-03-17T00:57:59.824Z,57.32
2023-03-17T01:01:02.700Z,58.30
2023-03-17T01:04:05.405Z,58.80
2023-03-17T01:07:11.189Z,59.36
2023-03-17T01:10:17.129Z,59.94
2023-03-17T01:13:19.938Z,59.82
2023-03-17T01:16:23.347Z,59.33
2023-03-17T01:19:26.674Z,59.36
2023-03-17T01:22:29.271Z,59.48
2023-03-17T01:25:32.678Z,59.49
2023-03-17T01:28:35.204Z,60.04
2023-03-17T01:31:38.178Z,60.53
2023-03-17T01:34:41.161Z,60.36
2023-03-17T01:37:45.166Z,59.97
2023-03-17T01:40:50.874Z,59.27
2023-03-17T01:43:54.025Z,58.96
2023-03-17T01:46:56.518Z,58.86
2023-03-17T01:50:09.994Z,59.19
2023-03-17T01:53:14.377Z,59.26
2023-03-17T01:56:18.142Z,59.88
2023-03-17T01:59:27.095Z,60.55
2023-03-17T02:02:33.416Z,60.50
2023-03-17T02:05:36.905Z,60.54
2023-03-17T02:08:39.437Z,60.21
2023-03-17T02:11:42.310Z,60.37
2023-03-17T02:14:44.923Z,60.53
2023-03-17T02:17:49.659Z,60.92
2023-03-17T02:21:29.225Z,61.09
2023-03-17T02:24:37.207Z,60.71
2023-03-17T02:27:44.352Z,60.54
2023-03-17T02:30:47.390Z,60.44
2023-03-17T02:33:52.276Z,60.52
2023-03-17T02:36:57.115Z,60.93
2023-03-17T02:40:01.741Z,60.68
2023-03-17T02:43:05.740Z,60.70
2023-03-17T02:46:08.713Z,60.94
2023-03-17T02:49:12.840Z,61.20
2023-03-17T02:52:15.627Z,61.10
2023-03-17T02:55:18.703Z,61.06
2023-03-17T02:58:21.285Z,60.93
2023-03-17T03:01:24.442Z,62.02
2023-03-17T03:04:27.520Z,62.15
2023-03-17T03:07:30.485Z,62.10
2023-03-17T03:10:33.093Z,62.47
2023-03-17T03:13:36.707Z,63.46
2023-03-17T03:16:39.390Z,63.85
2023-03-17T03:19:42.527Z,63.50
2023-03-17T03:22:45.320Z,63.75
2023-03-17T03:25:48.552Z,64.24
2023-03-17T03:28:51.268Z,63.67
2023-03-17T03:31:54.165Z,63.54
2023-03-17T03:34:57.616Z,63.81
2023-03-17T03:38:00.692Z,64.10
2023-03-17T03:41:03.547Z,64.71
2023-03-17T03:44:06.485Z,64.36
2023-03-17T03:47:09.206Z,64.35
2023-03-17T03:50:13.278Z,64.46
2023-03-17T03:53:16.264Z,65.36
2023-03-17T03:56:19.093Z,64.93
2023-03-17T03:59:22.426Z,64.67
2023-03-17T04:02:25.598Z,64.35
2023-03-17T04:05:28.541Z,64.64
2023-03-17T04:08:34.397Z,64.61
2023-03-17T04:11:37.343Z,64.79
2023-03-17T04:14:39.864Z,65.51
2023-03-17T04:17:43.000Z,65.42
2023-03-17T04:20:46.056Z,65.23
2023-03-17T04:23:49.062Z,65.03
2023-03-17T04:26:52.033Z,65.16
2023-03-17T04:29:55.067Z,65.45
2023-03-17T04:32:57.677Z,65.12
2023-03-17T04:36:00.742Z,65.97
2023-03-17T04:39:03.958Z,66.32
2023-03-17T04:42:07.627Z,66.86
2023-03-17T04:45:12.282Z,67.29
2023-03-17T04:48:15.239Z,67.45
2023-03-17T04:51:17.994Z,67.33
2023-03-17T04:54:21.381Z,67.40
2023-03-17T04:57:24.622Z,67.19
2023-03-17T05:00:28.187Z,67.22
2023-03-17T05:03:31.115Z,66.76
2023-03-17T05:06:34.287Z,66.52
2023-03-17T05:09:37.134Z,66.74
2023-03-17T05:12:40.650Z,67.09
2023-03-17T05:15:51.293Z,66.76
2023-03-17T05:18:55.225Z,67.11
2023-03-17T05:21:58.295Z,66.85
2023-03-17T05:25:01.106Z,66.83
2023-03-17T05:28:03.751Z,67.47
2023-03-17T05:31:08.825Z,68.30
2023-03-17T05:34:13.226Z,68.51
2023-03-17T05:37:16.654Z,68.92
2023-03-17T05:40:19.637Z,68.74
2023-03-17T05:43:22.633Z,67.94
2023-03-17T05:46:25.511Z,68.57
2023-03-17T05:49:28.532Z,68.79
2023-03-17T05:52:31.705Z,67.94
2023-03-17T05:55:34.464Z,67.41
2023-03-17T05:58:37.062Z,67.23
2023-03-17T06:01:40.111Z,66.43
2023-03-17T06:04:43.359Z,66.09
2023-03-17T06:07:53.977Z,63.31
2023-03-17T06:10:58.578Z,63.63
2023-03-17T06:14:01.799Z,65.09
2023-03-17T06:17:05.220Z,65.77
2023-03-17T06:20:08.571Z,65.43
2023-03-17T06:23:11.556Z,63.71
2023-03-17T06:26:14.134Z,62.89
2023-03-17T06:29:17.063Z,61.80
2023-03-17T06:32:21.206Z,61.90
2023-03-17T06:35:24.713Z,63.45
2023-03-17T06:38:27.942Z,63.22
2023-03-17T06:41:31.462Z,61.68
2023-03-17T06:44:34.340Z,61.07
2023-03-17T06:47:39.957Z,60.62
2023-03-17T06:50:42.572Z,60.49
2023-03-17T06:53:45.389Z,60.71
2023-03-17T06:56:47.887Z,57.46
2023-03-17T06:59:51.115Z,55.22
2023-03-17T07:02:53.812Z,54.82
2023-03-17T07:05:56.818Z,54.60
2023-03-17T07:09:01.987Z,55.60
2023-03-17T07:12:06.024Z,55.52
2023-03-17T07:15:09.351Z,56.21
2023-03-17T07:18:12.220Z,55.60
2023-03-17T07:21:15.630Z,55.47
2023-03-17T07:24:18.962Z,55.29
2023-03-17T07:27:24.206Z,55.75
2023-03-17T07:30:27.798Z,54.92
2023-03-17T07:33:31.415Z,54.40
2023-03-17T07:36:34.445Z,54.57
2023-03-17T07:39:37.093Z,54.61
2023-03-17T07:42:40.202Z,52.95
2023-03-17T07:45:43.950Z,52.57
2023-03-17T07:48:47.151Z,52.97
2023-03-17T07:51:49.655Z,53.12
2023-03-17T07:54:53.210Z,51.81
2023-03-17T07:57:55.834Z,49.85
2023-03-17T08:00:58.802Z,49.84
2023-03-17T08:04:01.856Z,49.42
2023-03-17T08:07:06.318Z,47.41
2023-03-17T08:10:12.975Z,46.46
2023-03-17T08:13:15.660Z,46.92
2023-03-17T08:16:18.579Z,44.66
2023-03-17T08:19:22.113Z,44.38
2023-03-17T08:22:25.390Z,42.88
2023-03-17T08:25:28.767Z,42.60
2023-03-17T08:28:32.572Z,43.68
2023-03-17T08:31:37.557Z,43.14
2023-03-17T08:34:40.431Z,40.27
2023-03-17T08:37:47.591Z,40.10
2023-03-17T08:40:50.990Z,40.45
2023-03-17T08:43:54.722Z,40.24
2023-03-17T08:46:57.944Z,39.34
2023-03-17T08:50:00.672Z,38.54
2023-03-17T08:53:04.333Z,37.86
2023-03-17T08:56:08.426Z,37.07
2023-03-17T08:59:12.489Z,37.79
2023-03-17T09:02:15.934Z,36.46
2023-03-17T09:05:19.586Z,35.94
2023-03-17T09:08:22.980Z,35.86
2023-03-17T09:11:28.582Z,35.71
2023-03-17T09:14:40.134Z,34.39
2023-03-17T09:17:45.948Z,33.65
2023-03-17T09:20:48.822Z,34.46
2023-03-17T09:23:51.997Z,34.11
2023-03-17T09:26:54.554Z,32.80
2023-03-17T09:29:58.034Z,32.70
2023-03-17T09:33:01.029Z,32.63
2023-03-17T09:36:04.433Z,33.36
2023-03-17T09:39:07.415Z,32.12
2023-03-17T09:42:48.127Z,32.87
2023-03-17T09:45:51.643Z,30.88
2023-03-17T09:49:44.940Z,31.89
2023-03-17T09:52:49.774Z,31.27
2023-03-17T09:55:58.797Z,30.41
2023-03-17T09:59:25.362Z,30.62
2023-03-17T10:02:33.201Z,30.68
2023-03-17T10:05:36.750Z,30.30
2023-03-17T10:08:45.132Z,29.04
2023-03-17T10:11:50.980Z,29.56
2023-03-17T10:15:15.497Z,28.46
2023-03-17T10:18:18.820Z,27.14
2023-03-17T10:21:26.070Z,27.47
2023-03-17T10:24:31.544Z,28.49
2023-03-17T10:27:36.954Z,27.84
2023-03-17T10:30:40.110Z,27.18
2023-03-17T10:33:52.448Z,27.53
2023-03-17T10:37:06.844Z,27.64
2023-03-17T10:40:21.069Z,27.29
2023-03-17T10:43:29.367Z,26.69
2023-03-17T10:46:33.271Z,27.48
2023-03-17T10:49:37.098Z,28.09
2023-03-17T10:52:40.919Z,27.88
2023-03-17T10:55:50.126Z,26.61
2023-03-17T10:58:53.711Z,26.44
2023-03-17T11:01:59.572Z,26.19
2023-03-17T11:05:20.173Z,26.23
2023-03-17T11:08:23.337Z,25.59
2023-03-17T11:11:29.809Z,24.94
2023-03-17T11:14:34.188Z,25.21
2023-03-17T11:18:04.373Z,25.46
2023-03-17T11:21:30.900Z,25.90
2023-03-17T11:24:36.424Z,24.97
2023-03-17T11:28:02.848Z,24.51
2023-03-17T11:31:15.355Z,26.08
2023-03-17T11:34:25.960Z,26.17
2023-03-17T11:37:50.429Z,25.15
2023-03-17T11:41:14.443Z,25.59
2023-03-17T11:44:40.393Z,24.53
2023-03-17T11:47:59.897Z,24.23
2023-03-17T11:51:03.108Z,23.75
2023-03-17T11:54:15.853Z,24.55
2023-03-17T11:57:27.479Z,24.28
2023-03-17T12:00:34.922Z,23.19
2023-03-17T12:03:51.902Z,23.01
2023-03-17T12:06:59.289Z,22.83
2023-03-17T12:10:13.640Z,22.03
2023-03-17T12:13:29.546Z,22.40
2023-03-17T12:16:39.110Z,23.34
2023-03-17T12:20:09.698Z,23.22
2023-03-17T12:23:36.656Z,23.30
2023-03-17T12:26:47.301Z,22.59
2023-03-17T12:30:07.590Z,23.45
2023-03-17T12:33:36.692Z,22.28
2023-03-17T12:36:39.620Z,22.73
2023-03-17T12:39:47.638Z,22.68
2023-03-17T12:43:29.282Z,23.78
2023-03-17T12:46:34.892Z,23.92
2023-03-17T12:50:02.544Z,23.61
2023-03-17T12:53:24.479Z,23.30
2023-03-17T12:56:34.516Z,23.53
2023-03-17T12:59:37.361Z,23.47
2023-03-17T13:02:40.935Z,23.43
2023-03-17T13:05:52.896Z,24.30
2023-03-17T13:08:56.379Z,24.71
2023-03-17T13:12:05.698Z,24.75
2023-03-17T13:15:37.254Z,24.34
2023-03-17T13:18:47.982Z,24.79
2023-03-17T13:22:00.527Z,24.66
2023-03-17T13:25:33.547Z,25.35
2023-03-17T13:28:36.847Z,26.05
2023-03-17T13:31:39.524Z,25.51
2023-03-17T13:34:48.464Z,25.82
2023-03-17T13:38:05.281Z,25.61
2023-03-17T13:41:13.940Z,25.83
2023-03-17T13:44:30.126Z,26.79
2023-03-17T13:47:38.435Z,26.51
2023-03-17T13:50:43.026Z,26.89
2023-03-17T13:53:51.004Z,26.97
2023-03-17T13:56:55.219Z,27.62
2023-03-17T14:00:14.825Z,27.14
2023-03-17T14:03:30.377Z,26.84
2023-03-17T14:06:37.188Z,26.58
2023-03-17T14:09:42.366Z,26.79
2023-03-17T14:12:51.179Z,27.81
2023-03-17T14:16:03.625Z,27.79
2023-03-17T14:19:21.201Z,28.43
2023-03-17T14:22:25.321Z,28.40
2023-03-17T14:25:38.977Z,28.56
2023-03-17T14:28:41.924Z,28.46
2023-03-17T14:31:49.837Z,29.64
2023-03-17T14:34:58.251Z,29.99
2023-03-17T14:38:01.983Z,28.97
2023-03-17T14:41:06.209Z,28.03
2023-03-17T14:44:09.073Z,27.96
2023-03-17T14:47:20.323Z,27.66
2023-03-17T14:50:26.038Z,28.30
2023-03-17T14:53:29.812Z,28.91
2023-03-17T14:56:37.069Z,29.08
2023-03-17T14:59:41.794Z,28.81
2023-03-17T15:02:57.460Z,29.61
2023-03-17T15:06:25.249Z,29.82
2023-03-17T15:09:28.412Z,29.50
2023-03-17T15:12:31.670Z,29.74
2023-03-17T15:15:36.117Z,29.61
2023-03-17T15:18:38.993Z,30.97
2023-03-17T15:21:43.107Z,31.55
2023-03-17T15:25:10.347Z,32.01
2023-03-17T15:28:18.342Z,32.74
2023-03-17T15:31:26.505Z,32.99
2023-03-17T15:34:30.714Z,33.24
2023-03-17T15:37:34.925Z,33.56
2023-03-17T15:40:37.554Z,34.11
2023-03-17T15:43:40.593Z,34.06
2023-03-17T15:46:43.213Z,35.03
2023-03-17T15:49:46.942Z,35.26
2023-03-17T15:52:53.776Z,35.06
2023-03-17T15:55:56.544Z,35.71
2023-03-17T15:58:59.007Z,35.37
2023-03-17T16:02:01.969Z,36.00
2023-03-17T16:05:15.443Z,36.04
2023-03-17T16:08:18.093Z,36.25
2023-03-17T16:11:28.310Z,36.75
2023-03-17T16:14:31.089Z,36.74
2023-03-17T16:17:34.011Z,37.18
2023-03-17T16:20:39.230Z,37.93
2023-03-17T16:23:42.314Z,37.56
2023-03-17T16:26:44.903Z,37.95
2023-03-17T16:29:47.857Z,38.49
2023-03-17T16:32:50.653Z,39.18
2023-03-17T16:35:54.616Z,39.16
2023-03-17T16:38:57.233Z,39.37
2023-03-17T16:42:01.284Z,39.42
2023-03-17T16:45:04.145Z,39.51
2023-03-17T16:48:09.763Z,39.91
2023-03-17T16:51:12.362Z,39.98
2023-03-17T16:54:15.344Z,40.05
2023-03-17T16:57:17.939Z,40.48
2023-03-17T17:00:23.334Z,40.27
2023-03-17T17:03:26.067Z,40.68
2023-03-17T17:06:28.855Z,40.73
2023-03-17T17:09:32.215Z,41.30
2023-03-17T17:12:35.397Z,41.27
2023-03-17T17:15:38.796Z,41.45
2023-03-17T17:18:41.655Z,41.94
2023-03-17T17:21:45.859Z,42.25
2023-03-17T17:24:49.330Z,42.34
2023-03-17T17:27:52.212Z,42.64
2023-03-17T17:30:55.876Z,42.92
2023-03-17T17:33:58.565Z,42.93
2023-03-17T17:37:01.492Z,43.47
2023-03-17T17:40:05.875Z,43.53
2023-03-17T17:43:09.696Z,43.46
2023-03-17T17:46:16.888Z,44.02
2023-03-17T17:49:22.669Z,43.78
2023-03-17T17:52:25.504Z,44.10
2023-03-17T17:55:29.259Z,44.73
2023-03-17T17:58:33.099Z,44.73
2023-03-17T18:01:36.462Z,44.78
2023-03-17T18:04:39.648Z,44.61
2023-03-17T18:07:42.418Z,44.92
2023-03-17T18:10:45.448Z,44.56
2023-03-17T18:13:49.796Z,44.67
2023-03-17T18:16:52.912Z,44.79
2023-03-17T18:19:55.748Z,44.73
2023-03-17T18:22:58.955Z,45.32
2023-03-17T18:26:02.564Z,45.22
2023-03-17T18:29:06.810Z,45.13
2023-03-17T18:32:10.948Z,45.58
2023-03-17T18:35:17.186Z,45.69
2023-03-17T18:38:19.734Z,45.41
2023-03-17T18:41:24.261Z,45.71
2023-03-17T18:44:27.337Z,45.58
2023-03-17T18:47:30.411Z,45.19
2023-03-17T18:50:33.439Z,45.11
2023-03-17T18:53:38.223Z,45.39
2023-03-17T18:56:41.013Z,45.73
2023-03-17T18:59:44.508Z,45.78
2023-03-17T19:02:47.537Z,45.89
2023-03-17T19:05:51.626Z,45.97
2023-03-17T19:08:54.467Z,45.96
2023-03-17T19:11:57.630Z,46.39
2023-03-17T19:15:01.794Z,46.75
2023-03-17T19:18:05.078Z,46.53
2023-03-17T19:21:08.481Z,46.62
2023-03-17T19:24:12.406Z,46.82
2023-03-17T19:27:15.479Z,47.02
2023-03-17T19:30:18.838Z,47.00
2023-03-17T19:33:22.608Z,47.39
2023-03-17T19:36:25.908Z,47.03
2023-03-17T19:39:28.808Z,47.24
2023-03-17T19:42:32.080Z,46.74
2023-03-17T19:45:35.578Z,46.59
2023-03-17T19:48:39.215Z,46.54
2023-03-17T19:51:42.265Z,46.48
2023-03-17T19:54:46.172Z,46.64
2023-03-17T19:57:49.097Z,47.11
2023-03-17T20:00:53.074Z,47.42
2023-03-17T20:03:56.306Z,46.97
2023-03-17T20:06:59.254Z,47.27
2023-03-17T20:10:02.568Z,46.53
2023-03-17T20:13:05.417Z,46.88
2023-03-17T20:16:10.664Z,47.12
2023-03-17T20:19:17.495Z,47.24
2023-03-17T20:22:21.193Z,47.46
2023-03-17T20:25:23.934Z,47.08
2023-03-17T20:28:29.913Z,47.41
2023-03-17T20:31:34.483Z,47.67
2023-03-17T20:34:37.899Z,47.47
2023-03-17T20:37:41.206Z,47.11
2023-03-17T20:40:44.540Z,47.67
2023-03-17T20:43:48.142Z,47.80
2023-03-17T20:46:51.491Z,47.80
2023-03-17T20:49:57.878Z,47.70
2023-03-17T20:53:01.652Z,47.43
2023-03-17T20:56:04.841Z,47.57
2023-03-17T20:59:09.656Z,48.04
2023-03-17T21:02:16.956Z,48.73
2023-03-17T21:05:25.164Z,48.88
2023-03-17T21:08:27.838Z,49.09
2023-03-17T21:11:31.201Z,49.60
2023-03-17T21:14:36.670Z,49.39
2023-03-17T21:17:40.050Z,49.18
2023-03-17T21:20:42.996Z,49.55
2023-03-17T21:23:46.467Z,50.30
2023-03-17T21:26:49.124Z,50.22
2023-03-17T21:29:52.360Z,50.51
2023-03-17T21:32:55.306Z,50.30
2023-03-17T21:35:58.837Z,49.63
2023-03-17T21:39:02.491Z,49.36
2023-03-17T21:42:05.902Z,49.27
2023-03-17T21:45:09.130Z,48.59
2023-03-17T21:48:12.009Z,48.26
2023-03-17T21:51:14.580Z,47.95
2023-03-17T21:54:19.292Z,47.87
2023-03-17T21:57:22.851Z,47.01
2023-03-17T22:00:27.263Z,47.08
2023-03-17T22:03:32.414Z,47.38
2023-03-17T22:06:35.202Z,47.41
2023-03-17T22:09:38.040Z,47.92
2023-03-17T22:12:40.825Z,47.96
2023-03-17T22:15:44.744Z,47.65
2023-03-17T22:18:47.533Z,47.85
2023-03-17T22:21:50.530Z,48.22
2023-03-17T22:24:53.195Z,47.97
2023-03-17T22:27:56.061Z,48.29
2023-03-17T22:30:58.833Z,48.88
2023-03-17T22:34:02.362Z,48.35
2023-03-17T22:37:05.659Z,48.73
2023-03-17T22:40:09.432Z,48.84
2023-03-17T22:43:12.437Z,49.31
2023-03-17T22:46:16.277Z,49.36
2023-03-17T22:49:19.202Z,49.24
2023-03-17T22:52:22.257Z,49.33
2023-03-17T22:55:24.862Z,49.56
2023-03-17T22:58:28.745Z,49.89
2023-03-17T23:01:31.887Z,50.94
2023-03-17T23:04:35.934Z,51.17
2023-03-17T23:07:49.488Z,51.60
2023-03-17T23:10:53.589Z,52.54
2023-03-17T23:13:56.584Z,52.28
2023-03-17T23:17:00.172Z,53.16
2023-03-17T23:20:05.503Z,53.95
2023-03-17T23:23:09.350Z,54.41
2023-03-17T23:26:12.352Z,54.88
2023-03-17T23:29:15.214Z,56.02
2023-03-17T23:32:18.169Z,56.90
2023-03-17T23:35:21.518Z,57.68
2023-03-17T23:38:24.341Z,57.81
2023-03-17T23:41:27.945Z,58.42
2023-03-17T23:44:30.903Z,58.82
2023-03-17T23:47:33.823Z,59.45
2023-03-17T23:50:37.203Z,59.86
2023-03-17T23:53:40.809Z,60.12
2023-03-17T23:56:43.496Z,59.96
2023-03-17T23:59:46.832Z,60.47
